Terminal Aerodrome Forecast
Issued by NWS Charleston, SC

Home | Current Version | Previous Version | Text Only | Print | Product List | Glossary On
Versions: 1 2 3 4 5 6 7 8 9 10 11 12 13 14 15 16 17 18 19 20 21 22 23 24 25 26 27 28 29 30 31 32
000
FTUS42 KCHS 161700
TAFSAV
TAF
KSAV 161720Z 1618/1718 32005KT P6SM SCT025 BKN035
     FM162000 VRB05KT P6SM VCTS SCT030CB BKN040
      TEMPO 1621/1624 3SM TSRA BR SCT010 BKN035CB
     FM170200 VRB02KT 6SM BR FEW015 SCT050 BKN100
     FM170800 00000KT 3SM BR SCT005 BKN010
     FM171400 VRB05KT P6SM SCT015 BKN035=

USA.gov is the U.S. government's official web portal to all federal, state and local government web resources and services.